sensor_id;sensor_type;location;lat;lon;timestamp;pressure;altitude;pressure_sealevel;temperature;humidity
8756;BME280;4414;42.670;23.228;2024-01-27T08:24:44;93700.00;;;2.88;64.40
8756;BME280;4414;42.670;23.228;2024-01-27T08:27:09;93684.38;;;2.90;64.30
8756;BME280;4414;42.670;23.228;2024-01-27T08:29:35;93703.75;;;2.96;64.04
8756;BME280;4414;42.670;23.228;2024-01-27T08:32:00;93710.31;;;3.01;64.99
8756;BME280;4414;42.670;23.228;2024-01-27T08:34:26;93719.28;;;3.03;64.34
8756;BME280;4414;42.670;23.228;2024-01-27T08:36:51;93723.22;;;2.93;64.57
8756;BME280;4414;42.670;23.228;2024-01-27T08:39:17;93676.44;;;2.90;65.02
8756;BME280;4414;42.670;23.228;2024-01-27T08:41:42;93690.31;;;3.00;64.70
8756;BME280;4414;42.670;23.228;2024-01-27T08:44:08;93689.88;;;3.01;65.14
8756;BME280;4414;42.670;23.228;2024-01-27T08:46:34;93673.34;;;3.06;63.77
8756;BME280;4414;42.670;23.228;2024-01-27T08:48:59;93664.38;;;3.04;63.63
8756;BME280;4414;42.670;23.228;2024-01-27T08:51:25;93662.56;;;3.10;64.72
8756;BME280;4414;42.670;23.228;2024-01-27T08:53:50;93676.53;;;3.10;64.73
8756;BME280;4414;42.670;23.228;2024-01-27T08:56:16;93683.56;;;3.13;63.37
8756;BME280;4414;42.670;23.228;2024-01-27T08:58:43;93667.94;;;3.15;63.48
8756;BME280;4414;42.670;23.228;2024-01-27T09:01:09;93689.78;;;3.25;62.68
8756;BME280;4414;42.670;23.228;2024-01-27T09:03:38;93682.47;;;3.34;61.49
8756;BME280;4414;42.670;23.228;2024-01-27T09:06:03;93689.78;;;3.39;61.92
8756;BME280;4414;42.670;23.228;2024-01-27T09:08:29;93695.00;;;3.34;62.24
8756;BME280;4414;42.670;23.228;2024-01-27T09:10:55;93698.94;;;3.38;61.53
8756;BME280;4414;42.670;23.228;2024-01-27T09:13:20;93704.41;;;3.35;62.50
8756;BME280;4414;42.670;23.228;2024-01-27T09:15:46;93699.66;;;3.24;63.76
8756;BME280;4414;42.670;23.228;2024-01-27T09:18:11;93696.19;;;3.18;63.81
8756;BME280;4414;42.670;23.228;2024-01-27T09:20:37;93699.47;;;3.13;63.28
8756;BME280;4414;42.670;23.228;2024-01-27T09:23:02;93708.72;;;3.18;63.59
8756;BME280;4414;42.670;23.228;2024-01-27T09:25:27;93684.75;;;3.27;63.01
8756;BME280;4414;42.670;23.228;2024-01-27T09:27:53;93689.03;;;3.39;63.52
8756;BME280;4414;42.670;23.228;2024-01-27T09:30:19;93685.00;;;3.43;63.42
8756;BME280;4414;42.670;23.228;2024-01-27T09:32:44;93684.00;;;3.56;61.84
8756;BME280;4414;42.670;23.228;2024-01-27T09:35:10;93681.53;;;3.52;63.09
8756;BME280;4414;42.670;23.228;2024-01-27T09:37:35;93658.31;;;3.47;63.15
8756;BME280;4414;42.670;23.228;2024-01-27T09:40:00;93663.34;;;3.45;62.88
8756;BME280;4414;42.670;23.228;2024-01-27T09:42:28;93662.34;;;3.42;63.27
8756;BME280;4414;42.670;23.228;2024-01-27T09:44:56;93649.56;;;3.26;63.45
8756;BME280;4414;42.670;23.228;2024-01-27T09:47:21;93646.38;;;3.22;63.60
8756;BME280;4414;42.670;23.228;2024-01-27T09:49:47;93653.22;;;3.14;63.66
8756;BME280;4414;42.670;23.228;2024-01-27T09:52:14;93661.63;;;3.13;64.43
8756;BME280;4414;42.670;23.228;2024-01-27T09:54:40;93673.50;;;3.03;64.79
8756;BME280;4414;42.670;23.228;2024-01-27T09:57:06;93684.28;;;2.99;64.55
8756;BME280;4414;42.670;23.228;2024-01-27T09:59:34;93708.59;;;2.98;64.70
8756;BME280;4414;42.670;23.228;2024-01-27T10:02:02;93714.97;;;2.91;64.75
8756;BME280;4414;42.670;23.228;2024-01-27T10:04:29;93718.19;;;2.95;64.91
8756;BME280;4414;42.670;23.228;2024-01-27T10:06:57;93727.41;;;2.85;65.58
8756;BME280;4414;42.670;23.228;2024-01-27T10:09:23;93726.66;;;2.85;64.95
8756;BME280;4414;42.670;23.228;2024-01-27T10:11:49;93720.28;;;2.91;65.38
8756;BME280;4414;42.670;23.228;2024-01-27T10:14:14;93697.63;;;2.90;64.98
8756;BME280;4414;42.670;23.228;2024-01-27T10:16:41;93735.81;;;2.84;65.51
8756;BME280;4414;42.670;23.228;2024-01-27T10:19:12;93719.69;;;2.73;64.71
8756;BME280;4414;42.670;23.228;2024-01-27T10:21:39;93708.94;;;2.76;65.26
8756;BME280;4414;42.670;23.228;2024-01-27T10:24:04;93714.13;;;2.71;65.63
8756;BME280;4414;42.670;23.228;2024-01-27T10:26:32;93729.03;;;2.68;65.76
8756;BME280;4414;42.670;23.228;2024-01-27T10:28:58;93721.44;;;2.76;65.35
8756;BME280;4414;42.670;23.228;2024-01-27T10:31:27;93731.75;;;2.74;65.36
8756;BME280;4414;42.670;23.228;2024-01-27T10:33:54;93741.25;;;2.66;65.72
8756;BME280;4414;42.670;23.228;2024-01-27T10:36:21;93732.47;;;2.59;66.12
8756;BME280;4414;42.670;23.228;2024-01-27T10:38:47;93743.63;;;2.64;66.35
8756;BME280;4414;42.670;23.228;2024-01-27T10:41:20;93738.69;;;2.71;65.54
8756;BME280;4414;42.670;23.228;2024-01-27T10:43:48;93751.31;;;2.76;65.71
8756;BME280;4414;42.670;23.228;2024-01-27T10:46:15;93744.56;;;2.75;65.01
8756;BME280;4414;42.670;23.228;2024-01-27T10:48:50;93753.41;;;2.72;66.62
8756;BME280;4414;42.670;23.228;2024-01-27T10:51:31;93769.03;;;2.70;65.79
8756;BME280;4414;42.670;23.228;2024-01-27T10:54:02;93774.59;;;2.72;66.57
8756;BME280;4414;42.670;23.228;2024-01-27T10:56:30;93775.41;;;2.64;66.58
8756;BME280;4414;42.670;23.228;2024-01-27T10:58:57;93757.34;;;2.53;67.15
8756;BME280;4414;42.670;23.228;2024-01-27T11:01:24;93768.22;;;2.55;66.46
8756;BME280;4414;42.670;23.228;2024-01-27T11:03:52;93765.88;;;2.57;66.32
8756;BME280;4414;42.670;23.228;2024-01-27T11:06:21;93763.69;;;2.55;67.13
8756;BME280;4414;42.670;23.228;2024-01-27T11:08:49;93753.53;;;2.54;66.60
8756;BME280;4414;42.670;23.228;2024-01-27T11:11:15;93786.50;;;2.53;67.31
8756;BME280;4414;42.670;23.228;2024-01-27T11:13:42;93761.66;;;2.50;67.15
8756;BME280;4414;42.670;23.228;2024-01-27T11:16:17;93766.31;;;2.55;67.63
8756;BME280;4414;42.670;23.228;2024-01-27T11:18:44;93763.56;;;2.50;67.84
8756;BME280;4414;42.670;23.228;2024-01-27T11:21:17;93777.41;;;2.45;67.59
8756;BME280;4414;42.670;23.228;2024-01-27T11:23:43;93766.91;;;2.36;67.77
8756;BME280;4414;42.670;23.228;2024-01-27T11:26:10;93766.44;;;2.37;68.00
8756;BME280;4414;42.670;23.228;2024-01-27T11:28:39;93772.66;;;2.34;68.18
8756;BME280;4414;42.670;23.228;2024-01-27T11:31:06;93771.00;;;2.37;68.67
8756;BME280;4414;42.670;23.228;2024-01-27T11:33:32;93783.34;;;2.40;68.29
8756;BME280;4414;42.670;23.228;2024-01-27T11:36:05;93779.91;;;2.48;67.83
8756;BME280;4414;42.670;23.228;2024-01-27T11:38:31;93787.00;;;2.42;67.61
8756;BME280;4414;42.670;23.228;2024-01-27T11:46:00;93779.22;;;2.39;66.90
8756;BME280;4414;42.670;23.228;2024-01-27T11:48:26;93788.56;;;2.49;66.63
8756;BME280;4414;42.670;23.228;2024-01-27T11:51:12;93778.72;;;2.49;66.51
8756;BME280;4414;42.670;23.228;2024-01-27T11:53:38;93785.78;;;2.52;66.65
8756;BME280;4414;42.670;23.228;2024-01-27T11:56:04;93781.28;;;2.58;66.93
8756;BME280;4414;42.670;23.228;2024-01-27T11:58:30;93791.19;;;2.58;66.10
8756;BME280;4414;42.670;23.228;2024-01-27T12:00:56;93786.44;;;2.62;65.75
8756;BME280;4414;42.670;23.228;2024-01-27T12:03:23;93801.78;;;2.58;65.02
8756;BME280;4414;42.670;23.228;2024-01-27T12:05:49;93798.94;;;2.62;64.84
8756;BME280;4414;42.670;23.228;2024-01-27T12:08:16;93800.06;;;2.70;64.86
8756;BME280;4414;42.670;23.228;2024-01-27T12:10:42;93812.06;;;2.80;64.87
8756;BME280;4414;42.670;23.228;2024-01-27T12:13:07;93809.06;;;2.87;64.75
8756;BME280;4414;42.670;23.228;2024-01-27T12:15:32;93797.63;;;2.81;65.07
8756;BME280;4414;42.670;23.228;2024-01-27T12:17:58;93808.69;;;2.79;63.45
8756;BME280;4414;42.670;23.228;2024-01-27T12:20:23;93806.97;;;2.91;62.88
8756;BME280;4414;42.670;23.228;2024-01-27T12:22:49;93797.53;;;3.13;62.09
8756;BME280;4414;42.670;23.228;2024-01-27T12:25:21;93796.09;;;3.12;62.25
8756;BME280;4414;42.670;23.228;2024-01-27T12:27:47;93794.81;;;3.22;62.02
8756;BME280;4414;42.670;23.228;2024-01-27T12:30:12;93789.44;;;3.31;61.86
8756;BME280;4414;42.670;23.228;2024-01-27T12:32:38;93796.38;;;3.43;61.56
8756;BME280;4414;42.670;23.228;2024-01-27T12:35:07;93781.56;;;3.22;60.31
8756;BME280;4414;42.670;23.228;2024-01-27T12:37:34;93787.53;;;3.32;61.61
8756;BME280;4414;42.670;23.228;2024-01-27T12:40:00;93793.91;;;3.25;61.94
8756;BME280;4414;42.670;23.228;2024-01-27T12:42:25;93799.00;;;3.14;62.23
8756;BME280;4414;42.670;23.228;2024-01-27T12:44:50;93801.63;;;3.00;63.03
8756;BME280;4414;42.670;23.228;2024-01-27T12:47:16;93794.28;;;2.95;61.99
8756;BME280;4414;42.670;23.228;2024-01-27T12:49:42;93798.50;;;3.01;62.54
8756;BME280;4414;42.670;23.228;2024-01-27T12:52:07;93792.88;;;3.08;62.27
8756;BME280;4414;42.670;23.228;2024-01-27T12:54:33;93805.94;;;3.12;62.24
8756;BME280;4414;42.670;23.228;2024-01-27T12:56:59;93804.75;;;3.13;60.50
8756;BME280;4414;42.670;23.228;2024-01-27T12:59:26;93805.72;;;3.24;60.16
8756;BME280;4414;42.670;23.228;2024-01-27T13:01:51;93806.13;;;3.23;59.96
8756;BME280;4414;42.670;23.228;2024-01-27T13:04:18;93811.66;;;3.34;58.69
8756;BME280;4414;42.670;23.228;2024-01-27T13:06:43;93797.84;;;3.30;57.86
8756;BME280;4414;42.670;23.228;2024-01-27T13:09:10;93811.75;;;3.39;57.12
8756;BME280;4414;42.670;23.228;2024-01-27T13:11:37;93812.53;;;3.16;56.77
8756;BME280;4414;42.670;23.228;2024-01-27T13:14:03;93812.22;;;3.00;58.50
8756;BME280;4414;42.670;23.228;2024-01-27T13:16:30;93818.28;;;3.00;58.05
8756;BME280;4414;42.670;23.228;2024-01-27T13:18:55;93828.63;;;2.89;57.58
8756;BME280;4414;42.670;23.228;2024-01-27T13:21:20;93827.78;;;2.83;57.96
8756;BME280;4414;42.670;23.228;2024-01-27T13:23:46;93852.66;;;2.86;59.12
8756;BME280;4414;42.670;23.228;2024-01-27T13:26:12;93835.75;;;2.83;58.16
8756;BME280;4414;42.670;23.228;2024-01-27T13:28:37;93836.31;;;2.87;58.72
8756;BME280;4414;42.670;23.228;2024-01-27T13:31:03;93836.94;;;2.82;56.26
8756;BME280;4414;42.670;23.228;2024-01-27T13:33:30;93856.72;;;2.72;57.14
8756;BME280;4414;42.670;23.228;2024-01-27T13:35:55;93853.25;;;2.57;56.61
8756;BME280;4414;42.670;23.228;2024-01-27T13:38:21;93854.63;;;2.52;56.31
8756;BME280;4414;42.670;23.228;2024-01-27T13:40:49;93855.69;;;2.46;55.92
8756;BME280;4414;42.670;23.228;2024-01-27T13:43:14;93859.66;;;2.41;56.62
8756;BME280;4414;42.670;23.228;2024-01-27T13:45:40;93848.22;;;2.35;58.64
8756;BME280;4414;42.670;23.228;2024-01-27T13:48:06;93845.00;;;2.31;57.43
8756;BME280;4414;42.670;23.228;2024-01-27T13:50:32;93861.00;;;2.37;57.03
8756;BME280;4414;42.670;23.228;2024-01-27T13:52:58;93853.41;;;2.30;57.27
8756;BME280;4414;42.670;23.228;2024-01-27T13:55:24;93867.22;;;2.34;57.43
8756;BME280;4414;42.670;23.228;2024-01-27T13:57:49;93856.44;;;2.37;56.74
8756;BME280;4414;42.670;23.228;2024-01-27T14:00:16;93854.53;;;2.38;56.89
8756;BME280;4414;42.670;23.228;2024-01-27T14:02:42;93858.81;;;2.35;56.92
8756;BME280;4414;42.670;23.228;2024-01-27T14:05:08;93860.69;;;2.44;56.47
8756;BME280;4414;42.670;23.228;2024-01-27T14:07:34;93856.00;;;2.39;56.51
8756;BME280;4414;42.670;23.228;2024-01-27T14:10:00;93852.47;;;2.42;56.59
8756;BME280;4414;42.670;23.228;2024-01-27T14:12:26;93852.00;;;2.43;56.72
8756;BME280;4414;42.670;23.228;2024-01-27T14:14:52;93850.22;;;2.49;56.02
8756;BME280;4414;42.670;23.228;2024-01-27T14:17:18;93855.63;;;2.55;54.56
8756;BME280;4414;42.670;23.228;2024-01-27T14:19:47;93852.97;;;2.55;54.92
8756;BME280;4414;42.670;23.228;2024-01-27T14:22:13;93847.69;;;2.55;54.91
8756;BME280;4414;42.670;23.228;2024-01-27T14:24:38;93847.72;;;2.46;54.78
8756;BME280;4414;42.670;23.228;2024-01-27T14:27:06;93842.63;;;2.42;56.07
8756;BME280;4414;42.670;23.228;2024-01-27T14:29:33;93840.69;;;2.43;55.88
8756;BME280;4414;42.670;23.228;2024-01-27T14:32:00;93845.09;;;2.46;55.67
8756;BME280;4414;42.670;23.228;2024-01-27T14:34:25;93842.63;;;2.42;56.36
8756;BME280;4414;42.670;23.228;2024-01-27T14:36:51;93838.66;;;2.38;56.04
8756;BME280;4414;42.670;23.228;2024-01-27T14:39:18;93839.50;;;2.44;55.37
8756;BME280;4414;42.670;23.228;2024-01-27T14:41:43;93831.84;;;2.46;54.14
8756;BME280;4414;42.670;23.228;2024-01-27T14:44:08;93833.31;;;2.47;55.46
8756;BME280;4414;42.670;23.228;2024-01-27T14:46:36;93832.16;;;2.39;55.30
8756;BME280;4414;42.670;23.228;2024-01-27T14:49:08;93845.75;;;2.32;55.52
8756;BME280;4414;42.670;23.228;2024-01-27T14:51:34;93845.75;;;2.32;55.21
8756;BME280;4414;42.670;23.228;2024-01-27T14:54:01;93848.38;;;2.32;55.18
8756;BME280;4414;42.670;23.228;2024-01-27T14:56:30;93842.25;;;2.26;55.79
8756;BME280;4414;42.670;23.228;2024-01-27T14:58:56;93836.53;;;2.18;56.96
8756;BME280;4414;42.670;23.228;2024-01-27T15:01:22;93851.09;;;2.14;55.94
8756;BME280;4414;42.670;23.228;2024-01-27T15:03:48;93855.66;;;2.13;56.24
8756;BME280;4414;42.670;23.228;2024-01-27T15:06:14;93853.75;;;2.14;55.69
8756;BME280;4414;42.670;23.228;2024-01-27T15:08:39;93859.94;;;2.11;56.40
8756;BME280;4414;42.670;23.228;2024-01-27T15:11:05;93857.13;;;2.14;56.41
8756;BME280;4414;42.670;23.228;2024-01-27T15:13:30;93861.53;;;2.17;56.71
8756;BME280;4414;42.670;23.228;2024-01-27T15:15:56;93864.63;;;2.16;56.28
8756;BME280;4414;42.670;23.228;2024-01-27T15:18:22;93859.34;;;2.16;57.04
8756;BME280;4414;42.670;23.228;2024-01-27T15:20:47;93855.22;;;2.15;56.63
8756;BME280;4414;42.670;23.228;2024-01-27T15:23:13;93859.50;;;2.12;56.53
8756;BME280;4414;42.670;23.228;2024-01-27T15:25:38;93867.16;;;2.10;56.70
8756;BME280;4414;42.670;23.228;2024-01-27T15:28:04;93864.34;;;2.05;55.95
8756;BME280;4414;42.670;23.228;2024-01-27T15:30:30;93857.78;;;2.00;56.56
8756;BME280;4414;42.670;23.228;2024-01-27T15:32:55;93871.00;;;2.00;56.87
8756;BME280;4414;42.670;23.228;2024-01-27T15:35:21;93876.13;;;2.04;56.13
8756;BME280;4414;42.670;23.228;2024-01-27T15:37:46;93875.56;;;2.00;56.62
8756;BME280;4414;42.670;23.228;2024-01-27T15:40:12;93879.53;;;1.95;56.43
8756;BME280;4414;42.670;23.228;2024-01-27T15:42:38;93894.94;;;1.97;56.44
8756;BME280;4414;42.670;23.228;2024-01-27T15:45:05;93889.97;;;1.90;56.83
8756;BME280;4414;42.670;23.228;2024-01-27T15:47:31;93889.25;;;1.89;56.21
8756;BME280;4414;42.670;23.228;2024-01-27T15:49:57;93891.16;;;1.89;56.18
8756;BME280;4414;42.670;23.228;2024-01-27T15:52:28;93895.56;;;1.92;55.58
8756;BME280;4414;42.670;23.228;2024-01-27T15:54:54;93904.06;;;1.87;55.89
8756;BME280;4414;42.670;23.228;2024-01-27T15:57:20;93894.69;;;1.86;55.70
8756;BME280;4414;42.670;23.228;2024-01-27T15:59:45;93899.81;;;1.89;55.10
8756;BME280;4414;42.670;23.228;2024-01-27T16:02:10;93918.03;;;1.87;54.50
8756;BME280;4414;42.670;23.228;2024-01-27T16:04:36;93926.88;;;1.84;54.95
8756;BME280;4414;42.670;23.228;2024-01-27T16:07:02;93926.72;;;1.88;55.11
8756;BME280;4414;42.670;23.228;2024-01-27T16:09:27;93928.47;;;1.91;55.50
8756;BME280;4414;42.670;23.228;2024-01-27T16:11:53;93924.38;;;1.90;54.65
8756;BME280;4414;42.670;23.228;2024-01-27T16:14:20;93928.47;;;1.91;55.20
8756;BME280;4414;42.670;23.228;2024-01-27T16:16:46;93928.91;;;1.89;55.61
8756;BME280;4414;42.670;23.228;2024-01-27T16:19:12;93925.25;;;1.87;54.44
8756;BME280;4414;42.670;23.228;2024-01-27T16:21:37;93924.66;;;1.92;54.41
8756;BME280;4414;42.670;23.228;2024-01-27T16:24:03;93929.06;;;1.86;54.03
8756;BME280;4414;42.670;23.228;2024-01-27T16:26:29;93939.53;;;1.80;54.13
8756;BME280;4414;42.670;23.228;2024-01-27T16:28:55;93940.25;;;1.90;54.26
8756;BME280;4414;42.670;23.228;2024-01-27T16:31:21;93941.84;;;1.87;54.11
8756;BME280;4414;42.670;23.228;2024-01-27T16:33:47;93942.31;;;1.86;54.37
8756;BME280;4414;42.670;23.228;2024-01-27T16:36:12;93950.81;;;1.90;53.66
8756;BME280;4414;42.670;23.228;2024-01-27T16:38:40;93939.66;;;1.86;54.11
8756;BME280;4414;42.670;23.228;2024-01-27T16:41:06;93952.72;;;1.89;54.35
8756;BME280;4414;42.670;23.228;2024-01-27T16:43:31;93941.13;;;1.87;53.88
8756;BME280;4414;42.670;23.228;2024-01-27T16:45:57;93940.53;;;1.83;55.23
8756;BME280;4414;42.670;23.228;2024-01-27T16:48:22;93937.63;;;1.71;55.18
8756;BME280;4414;42.670;23.228;2024-01-27T16:50:49;93948.47;;;1.64;55.13
8756;BME280;4414;42.670;23.228;2024-01-27T16:53:14;93940.09;;;1.57;56.13
8756;BME280;4414;42.670;23.228;2024-01-27T16:55:40;93940.25;;;1.62;55.31
8756;BME280;4414;42.670;23.228;2024-01-27T16:58:07;93935.13;;;1.59;55.39
8756;BME280;4414;42.670;23.228;2024-01-27T17:00:32;93943.78;;;1.50;55.89
8756;BME280;4414;42.670;23.228;2024-01-27T17:02:58;93942.31;;;1.49;55.59
8756;BME280;4414;42.670;23.228;2024-01-27T17:05:24;93944.50;;;1.51;55.49
8756;BME280;4414;42.670;23.228;2024-01-27T17:07:49;93947.00;;;1.45;56.70
8756;BME280;4414;42.670;23.228;2024-01-27T17:10:15;93949.34;;;1.34;56.04
8756;BME280;4414;42.670;23.228;2024-01-27T17:12:40;93945.09;;;1.37;55.87
8756;BME280;4414;42.670;23.228;2024-01-27T17:15:06;93947.59;;;1.40;57.00
8756;BME280;4414;42.670;23.228;2024-01-27T17:17:33;93940.41;;;1.41;55.42
8756;BME280;4414;42.670;23.228;2024-01-27T17:19:59;93951.97;;;1.34;55.91
8756;BME280;4414;42.670;23.228;2024-01-27T17:22:25;93949.03;;;1.32;56.71
8756;BME280;4414;42.670;23.228;2024-01-27T17:24:50;93940.69;;;1.25;56.18
8756;BME280;4414;42.670;23.228;2024-01-27T17:27:16;93951.69;;;1.23;56.23
8756;BME280;4414;42.670;23.228;2024-01-27T17:29:43;93946.69;;;1.25;55.82
8756;BME280;4414;42.670;23.228;2024-01-27T17:32:09;93947.00;;;1.18;55.97
8756;BME280;4414;42.670;23.228;2024-01-27T17:34:34;93944.22;;;1.22;56.74
8756;BME280;4414;42.670;23.228;2024-01-27T17:37:00;93939.94;;;1.15;57.20
8756;BME280;4414;42.670;23.228;2024-01-27T17:39:26;93949.47;;;1.13;55.91
8756;BME280;4414;42.670;23.228;2024-01-27T17:41:53;93966.34;;;1.15;55.82
8756;BME280;4414;42.670;23.228;2024-01-27T17:44:18;93963.13;;;1.11;56.06
8756;BME280;4414;42.670;23.228;2024-01-27T17:46:43;93962.81;;;1.09;56.95
8756;BME280;4414;42.670;23.228;2024-01-27T17:49:10;93960.94;;;1.19;56.15
8756;BME280;4414;42.670;23.228;2024-01-27T17:51:35;93964.47;;;1.16;56.05
8756;BME280;4414;42.670;23.228;2024-01-27T17:54:06;93971.34;;;1.13;55.77
8756;BME280;4414;42.670;23.228;2024-01-27T17:56:33;93964.91;;;1.14;56.06
8756;BME280;4414;42.670;23.228;2024-01-27T17:58:58;93961.22;;;1.12;55.87
8756;BME280;4414;42.670;23.228;2024-01-27T18:01:24;93969.91;;;1.21;56.85
8756;BME280;4414;42.670;23.228;2024-01-27T18:03:50;93971.69;;;1.24;55.88
8756;BME280;4414;42.670;23.228;2024-01-27T18:06:15;93972.25;;;1.19;55.16
8756;BME280;4414;42.670;23.228;2024-01-27T18:08:41;93960.06;;;1.22;56.53
8756;BME280;4414;42.670;23.228;2024-01-27T18:11:08;93972.09;;;1.23;55.78
8756;BME280;4414;42.670;23.228;2024-01-27T18:13:34;93977.69;;;1.34;56.18
8756;BME280;4414;42.670;23.228;2024-01-27T18:16:00;93968.13;;;1.27;55.04
8756;BME280;4414;42.670;23.228;2024-01-27T18:18:27;93981.66;;;1.29;55.32
8756;BME280;4414;42.670;23.228;2024-01-27T18:20:54;93983.28;;;1.36;55.49
8756;BME280;4414;42.670;23.228;2024-01-27T18:23:20;93992.22;;;1.38;55.78
8756;BME280;4414;42.670;23.228;2024-01-27T18:25:45;93981.06;;;1.34;56.03
8756;BME280;4414;42.670;23.228;2024-01-27T18:28:12;93997.81;;;1.31;55.82
8756;BME280;4414;42.670;23.228;2024-01-27T18:30:38;93988.41;;;1.39;55.61
8756;BME280;4414;42.670;23.228;2024-01-27T18:33:04;93993.41;;;1.37;55.88
8756;BME280;4414;42.670;23.228;2024-01-27T18:35:29;93974.91;;;1.37;56.14
8756;BME280;4414;42.670;23.228;2024-01-27T18:37:55;93970.78;;;1.36;55.68
8756;BME280;4414;42.670;23.228;2024-01-27T18:40:20;93988.41;;;1.39;56.39
8756;BME280;4414;42.670;23.228;2024-01-27T18:42:47;93966.97;;;1.37;55.98
8756;BME280;4414;42.670;23.228;2024-01-27T18:45:13;93969.19;;;1.39;55.54
8756;BME280;4414;42.670;23.228;2024-01-27T18:47:39;93980.78;;;1.50;55.82
8756;BME280;4414;42.670;23.228;2024-01-27T18:50:09;94001.22;;;1.50;54.51
8756;BME280;4414;42.670;23.228;2024-01-27T18:52:39;93983.72;;;1.52;55.60
8756;BME280;4414;42.670;23.228;2024-01-27T18:55:07;93987.81;;;1.44;55.38
8756;BME280;4414;42.670;23.228;2024-01-27T18:57:40;93972.56;;;1.39;55.12
8756;BME280;4414;42.670;23.228;2024-01-27T19:00:06;93990.16;;;1.33;55.79
8756;BME280;4414;42.670;23.228;2024-01-27T19:02:33;93996.06;;;1.37;55.48
8756;BME280;4414;42.670;23.228;2024-01-27T19:07:34;93996.31;;;1.30;56.28
8756;BME280;4414;42.670;23.228;2024-01-27T19:10:00;94005.31;;;1.42;55.71
8756;BME280;4414;42.670;23.228;2024-01-27T19:12:25;94008.53;;;1.37;55.34
8756;BME280;4414;42.670;23.228;2024-01-27T19:17:26;93987.53;;;1.24;55.21
8756;BME280;4414;42.670;23.228;2024-01-27T19:19:52;94003.53;;;1.30;55.57
8756;BME280;4414;42.670;23.228;2024-01-27T19:22:18;94007.63;;;1.31;55.30
8756;BME280;4414;42.670;23.228;2024-01-27T19:30:35;94010.13;;;1.16;55.69
8756;BME280;4414;42.670;23.228;2024-01-27T19:56:19;94008.97;;;1.26;56.35
8756;BME280;4414;42.670;23.228;2024-01-27T19:58:44;94004.25;;;1.30;57.27
8756;BME280;4414;42.670;23.228;2024-01-27T20:11:39;94017.91;;;1.29;55.25
8756;BME280;4414;42.670;23.228;2024-01-27T20:14:05;94008.06;;;1.29;56.47
8756;BME280;4414;42.670;23.228;2024-01-27T20:16:33;94004.53;;;1.23;55.68
8756;BME280;4414;42.670;23.228;2024-01-27T20:18:58;94008.03;;;1.11;56.86
8756;BME280;4414;42.670;23.228;2024-01-27T20:21:23;94015.84;;;1.24;56.19
8756;BME280;4414;42.670;23.228;2024-01-27T20:29:27;94005.41;;;1.11;56.41
8756;BME280;4414;42.670;23.228;2024-01-27T20:31:52;94013.91;;;1.06;56.70
8756;BME280;4414;42.670;23.228;2024-01-27T20:34:21;94022.44;;;1.10;56.40
8756;BME280;4414;42.670;23.228;2024-01-27T20:36:46;94013.47;;;1.17;57.03
8756;BME280;4414;42.670;23.228;2024-01-27T20:46:55;94024.63;;;1.12;56.34
8756;BME280;4414;42.670;23.228;2024-01-27T20:49:22;94021.94;;;1.03;56.27
8756;BME280;4414;42.670;23.228;2024-01-27T20:51:48;94033.41;;;1.09;56.96
8756;BME280;4414;42.670;23.228;2024-01-27T20:54:16;94037.25;;;1.08;57.12
8756;BME280;4414;42.670;23.228;2024-01-27T20:56:42;94027.13;;;1.06;57.01
8756;BME280;4414;42.670;23.228;2024-01-27T20:59:09;94019.78;;;1.10;57.13
8756;BME280;4414;42.670;23.228;2024-01-27T21:01:34;94014.31;;;1.05;57.01
8756;BME280;4414;42.670;23.228;2024-01-27T21:06:30;94021.22;;;1.02;57.93
8756;BME280;4414;42.670;23.228;2024-01-27T21:08:56;94023.72;;;1.06;57.03
8756;BME280;4414;42.670;23.228;2024-01-27T21:11:21;94019.28;;;0.94;57.59
8756;BME280;4414;42.670;23.228;2024-01-27T21:13:47;94020.63;;;0.98;57.37
8756;BME280;4414;42.670;23.228;2024-01-27T21:21:36;94000.50;;;0.92;57.84
8756;BME280;4414;42.670;23.228;2024-01-27T21:26:37;94006.97;;;1.00;57.54
8756;BME280;4414;42.670;23.228;2024-01-27T21:29:02;94012.66;;;0.89;58.44
8756;BME280;4414;42.670;23.228;2024-01-27T21:31:31;94003.84;;;0.83;59.41
8756;BME280;4414;42.670;23.228;2024-01-27T21:33:57;94012.72;;;0.98;59.29
8756;BME280;4414;42.670;23.228;2024-01-27T21:36:22;94013.91;;;1.06;58.89
8756;BME280;4414;42.670;23.228;2024-01-27T21:41:17;94005.63;;;0.86;58.84
8756;BME280;4414;42.670;23.228;2024-01-27T21:43:43;94021.50;;;0.95;58.46
8756;BME280;4414;42.670;23.228;2024-01-27T21:46:08;94021.78;;;0.97;59.75
8756;BME280;4414;42.670;23.228;2024-01-27T21:48:34;94012.97;;;0.91;59.80
8756;BME280;4414;42.670;23.228;2024-01-27T21:51:00;94028.25;;;0.96;59.95
8756;BME280;4414;42.670;23.228;2024-01-27T21:58:35;94022.97;;;0.96;60.45
8756;BME280;4414;42.670;23.228;2024-01-27T22:06:06;94017.34;;;0.85;60.46
8756;BME280;4414;42.670;23.228;2024-01-27T22:08:35;94019.13;;;0.88;59.65
8756;BME280;4414;42.670;23.228;2024-01-27T22:30:26;94023.59;;;0.69;61.22
8756;BME280;4414;42.670;23.228;2024-01-27T22:32:51;94016.28;;;0.73;60.75
8756;BME280;4414;42.670;23.228;2024-01-27T22:35:17;94019.81;;;0.79;59.66
8756;BME280;4414;42.670;23.228;2024-01-27T22:37:42;94024.50;;;0.75;61.09
8756;BME280;4414;42.670;23.228;2024-01-27T22:42:37;94032.59;;;0.81;60.18
8756;BME280;4414;42.670;23.228;2024-01-27T22:45:02;94030.81;;;0.78;60.42
8756;BME280;4414;42.670;23.228;2024-01-27T22:47:30;94025.41;;;0.81;60.22
8756;BME280;4414;42.670;23.228;2024-01-27T22:52:30;94011.28;;;0.75;59.51
8756;BME280;4414;42.670;23.228;2024-01-27T22:57:21;94022.16;;;0.77;59.96
8756;BME280;4414;42.670;23.228;2024-01-27T22:59:47;94027.09;;;0.66;60.00
8756;BME280;4414;42.670;23.228;2024-01-27T23:02:12;94029.78;;;0.75;60.89
8756;BME280;4414;42.670;23.228;2024-01-27T23:04:39;94030.78;;;0.69;60.45
8756;BME280;4414;42.670;23.228;2024-01-27T23:07:05;94029.31;;;0.68;59.77
8756;BME280;4414;42.670;23.228;2024-01-27T23:09:30;94023.00;;;0.74;59.94
8756;BME280;4414;42.670;23.228;2024-01-27T23:11:56;94032.72;;;0.77;60.11
8756;BME280;4414;42.670;23.228;2024-01-27T23:14:21;94023.59;;;0.69;60.52
8756;BME280;4414;42.670;23.228;2024-01-27T23:19:22;94026.38;;;0.66;61.56
8756;BME280;4414;42.670;23.228;2024-01-27T23:21:47;94022.84;;;0.69;60.80
8756;BME280;4414;42.670;23.228;2024-01-27T23:26:48;94035.44;;;0.65;61.60
8756;BME280;4414;42.670;23.228;2024-01-27T23:29:13;94041.19;;;0.72;61.66
8756;BME280;4414;42.670;23.228;2024-01-27T23:31:39;94032.28;;;0.79;62.10
8756;BME280;4414;42.670;23.228;2024-01-27T23:34:04;94033.47;;;0.78;60.89
8756;BME280;4414;42.670;23.228;2024-01-27T23:36:29;94036.34;;;0.71;62.42
8756;BME280;4414;42.670;23.228;2024-01-27T23:38:55;94041.78;;;0.76;61.11